createdAt,value
2019-03-18T00:00:10.938Z,9.45
2019-03-18T00:02:39.959Z,9.35
2019-03-18T00:05:07.249Z,9.21
2019-03-18T00:07:34.429Z,9.33
2019-03-18T00:10:06.797Z,9.20
2019-03-18T00:12:33.970Z,9.04
2019-03-18T00:15:02.259Z,9.14
2019-03-18T00:17:31.157Z,9.20
2019-03-18T00:19:58.345Z,9.18
2019-03-18T00:22:25.513Z,9.13
2019-03-18T00:24:55.842Z,9.09
2019-03-18T00:27:23.160Z,9.25
2019-03-18T00:29:50.415Z,9.24
2019-03-18T00:32:17.483Z,9.06
2019-03-18T00:34:44.592Z,8.90
2019-03-18T00:37:11.720Z,8.99
2019-03-18T00:39:38.800Z,8.95
2019-03-18T00:42:05.630Z,8.92
2019-03-18T00:44:32.427Z,8.88
2019-03-18T00:47:00.451Z,8.86
2019-03-18T00:49:27.111Z,8.92
2019-03-18T00:51:53.751Z,8.91
2019-03-18T00:54:20.730Z,8.85
2019-03-18T00:56:47.525Z,8.79
2019-03-18T00:59:14.177Z,8.64
2019-03-18T01:01:40.726Z,8.83
2019-03-18T01:04:07.451Z,8.86
2019-03-18T01:06:37.396Z,8.74
2019-03-18T01:09:05.554Z,8.52
2019-03-18T01:11:32.750Z,8.57
2019-03-18T01:13:59.338Z,8.32
2019-03-18T01:16:25.887Z,8.26
2019-03-18T01:18:52.466Z,8.35
2019-03-18T01:21:19.031Z,8.42
2019-03-18T01:23:45.594Z,8.33
2019-03-18T01:26:12.183Z,8.17
2019-03-18T01:28:38.777Z,8.20
2019-03-18T01:31:05.326Z,8.30
2019-03-18T01:33:31.978Z,8.35
2019-03-18T01:36:56.077Z,8.31
2019-03-18T01:39:26.071Z,8.28
2019-03-18T01:41:52.711Z,8.34
2019-03-18T01:44:19.324Z,8.33
2019-03-18T01:46:45.952Z,8.20
2019-03-18T01:49:12.505Z,8.43
2019-03-18T01:51:39.059Z,8.36
2019-03-18T01:54:05.794Z,8.23
2019-03-18T01:56:32.384Z,8.10
2019-03-18T01:58:59.008Z,8.30
2019-03-18T02:01:25.693Z,8.26
2019-03-18T02:03:52.252Z,8.04
2019-03-18T02:06:18.841Z,8.24
2019-03-18T02:08:45.419Z,8.24
2019-03-18T02:11:12.090Z,8.25
2019-03-18T02:13:38.755Z,8.22
2019-03-18T02:16:05.374Z,8.35
2019-03-18T02:18:31.939Z,8.37
2019-03-18T02:20:58.501Z,8.49
2019-03-18T02:23:25.144Z,8.53
2019-03-18T02:25:51.764Z,8.61
2019-03-18T02:28:18.415Z,8.26
2019-03-18T02:30:45.115Z,8.10
2019-03-18T02:33:11.674Z,8.22
2019-03-18T02:35:38.291Z,8.39
2019-03-18T02:38:04.913Z,8.44
2019-03-18T02:40:32.905Z,8.30
2019-03-18T02:43:55.622Z,8.25
2019-03-18T02:46:22.355Z,8.14
2019-03-18T02:48:48.957Z,7.73
2019-03-18T02:51:15.646Z,7.74
2019-03-18T02:53:42.240Z,7.61
2019-03-18T02:56:09.097Z,7.19
2019-03-18T02:58:35.731Z,7.26
2019-03-18T03:01:02.388Z,7.15
2019-03-18T03:03:29.013Z,7.00
2019-03-18T03:05:58.867Z,7.21
2019-03-18T03:08:25.588Z,7.04
2019-03-18T03:10:52.418Z,7.15
2019-03-18T03:13:19.024Z,7.03
2019-03-18T03:15:45.777Z,6.90
2019-03-18T03:18:12.464Z,6.92
2019-03-18T03:20:39.093Z,6.88
2019-03-18T03:23:05.680Z,7.12
2019-03-18T03:25:32.345Z,7.00
2019-03-18T03:27:58.917Z,7.09
2019-03-18T03:30:25.511Z,7.05
2019-03-18T03:32:52.072Z,7.03
2019-03-18T03:35:18.645Z,6.91
2019-03-18T03:37:45.270Z,6.95
2019-03-18T03:40:12.417Z,6.96
2019-03-18T03:42:39.238Z,6.95
2019-03-18T03:45:11.190Z,6.98
2019-03-18T03:47:37.764Z,6.95
2019-03-18T03:50:09.369Z,6.91
2019-03-18T03:52:36.058Z,7.02
2019-03-18T03:55:07.057Z,6.87
2019-03-18T03:57:33.686Z,6.89
2019-03-18T04:00:01.743Z,6.91
2019-03-18T04:02:28.703Z,6.90
2019-03-18T04:04:55.671Z,6.96
2019-03-18T04:07:22.331Z,6.94
2019-03-18T04:09:49.157Z,6.83
2019-03-18T04:12:15.718Z,6.79
2019-03-18T04:14:42.292Z,6.96
2019-03-18T04:17:08.844Z,6.87
2019-03-18T04:19:36.933Z,6.97
2019-03-18T04:22:03.753Z,6.91
2019-03-18T04:24:30.368Z,7.00
2019-03-18T04:26:56.941Z,7.01
2019-03-18T04:29:23.565Z,7.02
2019-03-18T04:31:50.767Z,6.89
2019-03-18T04:34:17.388Z,6.89
2019-03-18T04:36:44.045Z,6.90
2019-03-18T04:39:10.622Z,6.89
2019-03-18T04:41:37.164Z,6.77
2019-03-18T04:44:03.853Z,6.97
2019-03-18T04:46:30.436Z,6.93
2019-03-18T04:48:57.036Z,6.94
2019-03-18T04:51:23.716Z,6.89
2019-03-18T04:53:50.283Z,6.99
2019-03-18T04:56:16.970Z,6.93
2019-03-18T04:58:43.579Z,6.86
2019-03-18T05:01:10.147Z,6.85
2019-03-18T05:03:36.766Z,6.99
2019-03-18T05:06:03.482Z,6.97
2019-03-18T05:08:30.109Z,6.97
2019-03-18T05:10:57.979Z,7.11
2019-03-18T05:13:26.534Z,7.08
2019-03-18T05:15:52.987Z,7.16
2019-03-18T05:18:19.579Z,7.14
2019-03-18T05:20:46.149Z,7.15
2019-03-18T05:23:12.703Z,7.06
2019-03-18T05:25:39.275Z,7.07
2019-03-18T05:28:05.895Z,7.03
2019-03-18T05:30:32.466Z,7.01
2019-03-18T05:32:59.090Z,6.95
2019-03-18T05:35:25.761Z,7.09
2019-03-18T05:37:52.455Z,7.03
2019-03-18T05:40:19.042Z,7.11
2019-03-18T05:42:45.677Z,7.16
2019-03-18T05:45:12.367Z,7.08
2019-03-18T05:47:39.900Z,7.06
2019-03-18T05:50:10.022Z,7.08
2019-03-18T05:52:38.037Z,7.08
2019-03-18T05:55:07.200Z,7.17
2019-03-18T05:57:33.794Z,7.21
2019-03-18T06:00:00.507Z,7.30
2019-03-18T06:02:27.173Z,7.28
2019-03-18T06:04:53.910Z,7.21
2019-03-18T06:07:20.673Z,7.25
2019-03-18T06:09:47.281Z,7.24
2019-03-18T06:12:13.842Z,7.30
2019-03-18T06:14:40.442Z,7.37
2019-03-18T06:17:07.012Z,7.40
2019-03-18T06:19:33.713Z,7.36
2019-03-18T06:22:00.422Z,7.34
2019-03-18T06:24:28.435Z,7.40
2019-03-18T06:26:55.011Z,7.46
2019-03-18T06:29:21.857Z,7.60
2019-03-18T06:31:48.573Z,7.53
2019-03-18T06:34:15.176Z,7.45
2019-03-18T06:36:41.927Z,7.57
2019-03-18T06:39:08.670Z,7.62
2019-03-18T06:41:35.304Z,7.60
2019-03-18T06:44:02.167Z,7.66
2019-03-18T06:46:28.900Z,7.57
2019-03-18T06:48:55.601Z,7.80
2019-03-18T06:51:22.348Z,7.86
2019-03-18T06:53:48.986Z,7.95
2019-03-18T06:56:16.680Z,7.92
2019-03-18T06:58:43.245Z,8.00
2019-03-18T07:01:09.790Z,7.92
2019-03-18T07:03:36.415Z,7.95
2019-03-18T07:06:03.273Z,7.95
2019-03-18T07:08:30.106Z,8.10
2019-03-18T07:10:56.941Z,8.05
2019-03-18T07:13:23.611Z,8.20
2019-03-18T07:15:50.197Z,8.02
2019-03-18T07:18:18.453Z,7.94
2019-03-18T07:20:45.295Z,7.87
2019-03-18T07:24:08.147Z,8.12
2019-03-18T07:26:34.679Z,7.98
2019-03-18T07:29:01.411Z,7.94
2019-03-18T07:31:28.168Z,8.12
2019-03-18T07:33:54.758Z,8.05
2019-03-18T07:36:21.607Z,8.06
2019-03-18T07:38:48.315Z,8.12
2019-03-18T07:41:14.976Z,7.92
2019-03-18T07:43:41.543Z,8.08
2019-03-18T07:46:08.206Z,8.07
2019-03-18T07:48:34.780Z,8.49
2019-03-18T07:51:01.557Z,8.51
2019-03-18T07:53:28.196Z,8.40
2019-03-18T07:55:54.843Z,8.58
2019-03-18T07:58:22.540Z,8.33
2019-03-18T08:00:49.613Z,8.47
2019-03-18T08:03:16.328Z,8.59
2019-03-18T20:57:15.458Z,6.41
2019-03-18T20:59:42.445Z,6.29
2019-03-18T21:02:09.038Z,6.26
2019-03-18T21:04:35.693Z,6.10
2019-03-18T21:07:02.519Z,6.08
2019-03-18T21:09:29.119Z,5.94
2019-03-18T21:11:55.995Z,6.05
2019-03-18T21:14:22.871Z,5.98
2019-03-18T21:16:49.737Z,5.93
2019-03-18T21:19:16.530Z,5.85
2019-03-18T21:21:43.180Z,5.76
2019-03-18T21:24:09.871Z,5.81
2019-03-18T21:26:36.476Z,5.91
2019-03-18T21:29:03.453Z,6.01
2019-03-18T21:31:30.222Z,6.04
2019-03-18T21:33:56.932Z,6.01
2019-03-18T21:36:36.828Z,6.06
2019-03-18T21:38:52.331Z,5.98
2019-03-18T21:41:18.985Z,6.04
2019-03-18T21:43:45.766Z,6.03
2019-03-18T21:46:12.415Z,6.03
2019-03-18T21:48:40.034Z,5.95
2019-03-18T21:51:06.654Z,5.96
2019-03-18T21:53:33.382Z,5.93
2019-03-18T21:56:00.181Z,5.95
2019-03-18T21:58:26.790Z,5.95
2019-03-18T22:00:53.362Z,5.95
2019-03-18T22:03:20.209Z,5.75
2019-03-18T22:05:46.782Z,5.82
2019-03-18T22:09:09.794Z,5.74
2019-03-18T22:11:36.598Z,5.55
2019-03-18T22:14:03.574Z,5.44
2019-03-18T22:16:30.349Z,5.49
2019-03-18T22:18:56.920Z,5.45
2019-03-18T22:21:25.086Z,5.60
2019-03-18T22:23:52.073Z,5.50
2019-03-18T22:26:18.751Z,5.11
2019-03-18T22:28:45.479Z,5.14
2019-03-18T22:31:12.457Z,5.19
2019-03-18T22:33:39.077Z,5.22
2019-03-18T22:36:05.711Z,5.23
2019-03-18T22:38:32.711Z,5.19
2019-03-18T22:40:59.305Z,5.11
2019-03-18T22:43:25.885Z,4.99
2019-03-18T22:45:52.526Z,4.89
2019-03-18T22:48:19.099Z,4.71
2019-03-18T22:50:45.722Z,4.71
2019-03-18T22:53:12.335Z,4.73
2019-03-18T22:55:38.913Z,4.72
2019-03-18T22:58:05.645Z,4.56
2019-03-18T23:00:32.532Z,4.51
2019-03-18T23:03:01.310Z,4.49
2019-03-18T23:05:28.038Z,4.36
2019-03-18T23:07:54.718Z,4.25
2019-03-18T23:10:21.489Z,4.22
2019-03-18T23:12:49.200Z,4.12
2019-03-18T23:15:15.916Z,4.13
2019-03-18T23:17:42.672Z,4.10
2019-03-18T23:20:09.597Z,4.04
2019-03-18T23:22:36.166Z,4.03
2019-03-18T23:25:07.790Z,4.05
2019-03-18T23:27:34.947Z,4.08
2019-03-18T23:30:04.183Z,4.02
2019-03-18T23:32:31.012Z,4.08
2019-03-18T23:34:57.572Z,4.01
2019-03-18T23:37:24.339Z,3.83
2019-03-18T23:39:51.123Z,3.92
2019-03-18T23:42:17.903Z,3.88
2019-03-18T23:44:44.490Z,3.93
2019-03-18T23:47:11.104Z,3.86
2019-03-18T23:49:38.893Z,3.76
2019-03-18T23:52:05.688Z,3.76
2019-03-18T23:54:32.354Z,3.83
2019-03-18T23:56:58.916Z,3.67
2019-03-18T23:59:25.645Z,3.76
